Time;durP1;ratioP1;P1;durP2;ratioP2;P2;SDS_P1;SDS_P2;PMS_P1;PMS_P2;Temp;Humidity;BMP_temperature;BMP_pressure;BME280_temperature;BME280_humidity;BME280_pressure;Samples;Min_cycle;Max_cycle;Signal;HPM_P1;HPM_P2
2022/10/01 00:03:52;;;;;;;33.40;27.87;;;;;;;16.06;100.00;100177.13;1605955;86;85139;-91
2022/10/01 00:06:23;;;;;;;30.37;27.25;;;;;;;16.05;100.00;100167.44;1593820;88;21047;-90
2022/10/01 00:08:54;;;;;;;31.70;27.87;;;;;;;16.04;100.00;100169.81;1594976;88;21176;-90
2022/10/01 00:11:35;;;;;;;28.92;25.88;;;;;;;16.03;100.00;100166.84;1565993;90;21094;-90
2022/10/01 00:14:05;;;;;;;31.30;28.00;;;;;;;16.02;100.00;100155.78;1586359;88;21554;-91
2022/10/01 00:16:34;;;;;;;35.13;27.70;;;;;;;16.01;100.00;100156.00;1599466;88;21030;-91
2022/10/01 00:19:03;;;;;;;36.08;28.62;;;;;;;15.98;100.00;100149.23;1594836;88;21004;-91
2022/10/01 00:21:34;;;;;;;32.03;28.60;;;;;;;15.96;100.00;100157.52;1595901;88;21103;-90
2022/10/01 00:24:07;;;;;;;32.78;29.05;;;;;;;15.70;100.00;100110.83;1596466;88;21087;-91
2022/10/01 00:26:37;;;;;;;29.45;25.92;;;;;;;15.95;100.00;100157.73;1590348;88;21146;-91
2022/10/01 00:29:08;;;;;;;31.87;27.62;;;;;;;15.96;100.00;100166.92;1594752;88;21098;-90
2022/10/01 00:31:38;;;;;;;30.17;26.97;;;;;;;15.94;100.00;100162.30;1596530;88;21127;-91
2022/10/01 00:34:05;;;;;;;28.40;25.43;;;;;;;15.92;100.00;100163.59;1595886;87;21043;-90
2022/10/01 00:36:32;;;;;;;29.05;25.90;;;;;;;15.89;100.00;100167.53;1600566;84;21138;-89
2022/10/01 00:39:01;;;;;;;28.00;24.43;;;;;;;15.87;100.00;100162.91;1595525;86;21027;-91
2022/10/01 00:41:33;;;;;;;28.98;25.88;;;;;;;15.85;100.00;100168.23;1587754;85;21099;-90
2022/10/01 00:44:33;;;;;;;28.05;25.23;;;;;;;15.76;100.00;100154.27;1595042;88;21105;-89
2022/10/01 00:47:28;;;;;;;28.85;25.80;;;;;;;15.76;100.00;100154.27;1602348;84;21053;-92
2022/10/01 00:50:02;;;;;;;28.73;25.62;;;;;;;15.71;100.00;100156.28;1575061;86;21070;-91
2022/10/01 00:52:33;;;;;;;30.95;25.88;;;;;;;15.67;100.00;100154.25;1610594;84;21035;-91
2022/10/01 00:55:16;;;;;;;30.65;26.40;;;;;;;15.64;100.00;100154.20;1585660;89;21035;-90
2022/10/01 00:57:47;;;;;;;27.48;24.65;;;;;;;15.61;100.00;100156.51;1599041;84;21190;-91
2022/10/01 01:00:15;;;;;;;27.67;24.87;;;;;;;15.55;100.00;100159.58;1557637;86;21082;-92
2022/10/01 01:02:42;;;;;;;28.73;25.62;;;;;;;15.48;100.00;100158.83;1611268;87;21060;-92
2022/10/01 01:05:15;;;;;;;28.83;25.95;;;;;;;15.43;100.00;100156.02;1593574;88;21055;-91
2022/10/01 01:07:47;;;;;;;30.48;26.25;;;;;;;15.40;100.00;100151.89;1594499;88;21076;-92
2022/10/01 01:10:36;;;;;;;30.00;26.77;;;;;;;15.40;100.00;100157.27;1596729;87;21476;-90
2022/10/01 01:13:38;;;;;;;29.52;26.33;;;;;;;15.38;100.00;100156.14;1528616;92;21040;-91
2022/10/01 01:16:19;;;;;;;28.20;25.17;;;;;;;15.33;100.00;100151.99;1519811;93;21204;-91
2022/10/01 01:19:06;;;;;;;28.52;25.25;;;;;;;15.30;100.00;100155.11;1542148;91;21105;-89
2022/10/01 01:21:43;;;;;;;29.40;26.30;;;;;;;15.31;100.00;100156.77;1545088;90;21543;-92
2022/10/01 01:24:49;;;;;;;28.30;25.27;;;;;;;15.35;100.00;100145.03;1595589;88;21118;-91
2022/10/01 01:27:39;;;;;;;27.42;24.67;;;;;;;15.38;100.00;100144.06;1581872;88;21563;-91
2022/10/01 01:30:15;;;;;;;31.20;26.27;;;;;;;15.41;100.00;100144.66;1591296;88;21088;-92
2022/10/01 01:33:06;;;;;;;32.33;25.17;;;;;;;15.42;100.00;100140.94;1594427;88;21543;-90
2022/10/01 01:35:58;;;;;;;33.88;25.95;;;;;;;15.44;100.00;100142.34;1595783;88;21075;-89
2022/10/01 01:38:37;;;;;;;26.95;24.20;;;;;;;15.45;100.00;100141.84;1598446;85;21059;-89
2022/10/01 01:41:07;;;;;;;29.55;24.87;;;;;;;15.45;100.00;100151.23;1602810;85;21053;-91
2022/10/01 01:43:45;;;;;;;27.75;23.22;;;;;;;15.46;100.00;100152.86;1556714;89;21121;-90
2022/10/01 01:46:16;;;;;;;29.82;26.50;;;;;;;15.44;100.00;100154.42;1599087;88;21131;-90
2022/10/01 01:48:49;;;;;;;27.27;24.37;;;;;;;15.43;100.00;100147.43;1577646;88;21098;-91
2022/10/01 01:51:31;;;;;;;26.17;23.65;;;;;;;15.42;100.00;100145.78;1625105;88;21106;-90
2022/10/01 01:53:59;;;;;;;32.17;24.92;;;;;;;15.42;100.00;100153.83;1606501;88;21553;-91
2022/10/01 01:56:33;;;;;;;25.45;23.00;;;;;;;15.40;100.00;100151.09;1595277;87;21039;-91
2022/10/01 01:59:07;;;;;;;26.02;23.42;;;;;;;15.40;100.00;100150.55;1591355;87;21132;-89
2022/10/01 02:01:42;;;;;;;24.67;21.93;;;;;;;15.35;100.00;100153.92;1632432;86;21052;-89
2022/10/01 02:04:22;;;;;;;26.62;21.68;;;;;;;15.32;100.00;100151.68;1621559;86;21130;-90
2022/10/01 02:07:33;;;;;;;23.50;21.00;;;;;;;15.30;100.00;100151.09;1601434;87;21081;-89
2022/10/01 02:10:37;;;;;;;25.10;22.13;;;;;;;15.29;100.00;100148.62;1551333;87;22319;-90
2022/10/01 02:13:24;;;;;;;22.20;19.98;;;;;;;15.25;100.00;100152.80;1569084;87;21061;-89
2022/10/01 02:16:20;;;;;;;22.67;20.37;;;;;;;15.24;100.00;100156.52;1596193;88;21083;-91
2022/10/01 02:19:18;;;;;;;22.25;20.00;;;;;;;15.21;100.00;100153.77;1598194;88;21096;-91
2022/10/01 02:22:16;;;;;;;23.83;20.80;;;;;;;15.21;100.00;100162.35;1595177;88;21083;-91
2022/10/01 02:24:51;;;;;;;;;;;;;;;15.16;100.00;100162.50;1598174;88;21437;-89
2022/10/01 02:27:38;;;;;;;21.35;19.27;;;;;;;15.13;100.00;100158.09;1599563;88;20115;-90
2022/10/01 02:30:09;;;;;;;20.30;17.95;;;;;;;15.07;100.00;100150.91;1575413;89;21116;-92
2022/10/01 02:35:37;;;;;;;20.92;18.73;;;;;;;15.07;100.00;100154.44;1828660;76;23355;-78
2022/10/01 02:38:06;;;;;;;20.57;18.20;;;;;;;15.03;100.00;100163.98;1742366;78;21016;-76
2022/10/01 02:40:39;;;;;;;21.00;18.17;;;;;;;15.02;100.00;100162.86;1730603;81;20991;-75
2022/10/01 02:43:14;;;;;;;19.75;17.67;;;;;;;15.03;100.00;100161.80;1697614;81;21174;-76
2022/10/01 02:45:45;;;;;;;20.05;16.67;;;;;;;15.04;100.00;100163.45;1713603;81;21692;-76
2022/10/01 02:48:16;;;;;;;18.23;16.20;;;;;;;15.04;100.00;100162.11;1721150;81;21478;-78
2022/10/01 02:51:08;;;;;;;17.87;15.95;;;;;;;15.05;100.00;100165.92;1695218;83;21041;-77
2022/10/01 02:53:41;;;;;;;18.73;16.42;;;;;;;15.06;100.00;100165.39;1622444;85;21099;-78
2022/10/01 02:56:09;;;;;;;19.90;16.30;;;;;;;15.06;100.00;100165.39;1661793;85;20990;-77
2022/10/01 02:58:35;;;;;;;18.00;16.20;;;;;;;15.06;100.00;100159.50;1667405;84;21069;-78
2022/10/01 03:01:01;;;;;;;21.55;16.42;;;;;;;15.06;100.00;100151.97;1663402;84;21540;-79
2022/10/01 03:03:29;;;;;;;19.35;15.20;;;;;;;15.06;100.00;100151.97;1657846;84;22242;-79
2022/10/01 03:05:56;;;;;;;16.87;15.08;;;;;;;15.04;100.00;100152.19;1688316;83;21039;-77
2022/10/01 03:08:22;;;;;;;17.92;16.05;;;;;;;15.03;100.00;100155.09;1699687;81;22155;-77
2022/10/01 03:10:49;;;;;;;17.75;15.30;;;;;;;15.01;100.00;100156.64;1683935;84;21050;-79
2022/10/01 03:13:18;;;;;;;16.95;14.05;;;;;;;15.01;100.00;100161.20;1673499;84;20982;-78
2022/10/01 03:15:46;;;;;;;14.38;12.88;;;;;;;15.00;100.00;100153.68;1638817;86;21168;-77
2022/10/01 03:18:12;;;;;;;14.38;12.82;;;;;;;15.01;100.00;100163.89;1673018;84;21566;-77
2022/10/01 03:20:38;;;;;;;13.60;12.20;;;;;;;15.00;100.00;100163.08;1675810;84;21002;-78
2022/10/01 03:23:04;;;;;;;;;;;;;;;15.00;100.00;100163.08;1690333;83;21338;-77
2022/10/01 03:25:30;;;;;;;12.50;11.03;;;;;;;14.98;100.00;100164.63;1682492;83;20204;-80
2022/10/01 03:27:59;;;;;;;13.00;11.73;;;;;;;14.93;100.00;100169.83;1695303;83;21037;-77
2022/10/01 03:30:25;;;;;;;11.73;10.55;;;;;;;14.91;100.00;100177.28;1663556;84;21081;-79
2022/10/01 03:32:51;;;;;;;13.15;10.80;;;;;;;14.90;100.00;100178.34;1661640;84;21616;-78
2022/10/01 03:35:17;;;;;;;15.70;11.10;;;;;;;14.91;100.00;100177.81;1686743;84;21088;-79
2022/10/01 03:37:43;;;;;;;13.98;10.93;;;;;;;14.91;100.00;100175.95;1672766;84;21016;-78
2022/10/01 03:40:10;;;;;;;15.28;10.28;;;;;;;14.92;100.00;100172.23;1681448;84;21104;-76
2022/10/01 03:42:36;;;;;;;14.95;10.72;;;;;;;14.93;100.00;100160.44;1687377;84;21039;-77
2022/10/01 03:45:03;;;;;;;10.50;9.50;;;;;;;14.93;100.00;100167.68;1677873;84;21121;-77
2022/10/01 03:47:29;;;;;;;10.00;8.75;;;;;;;14.93;100.00;100167.15;1676497;85;21077;-78
2022/10/01 03:49:56;;;;;;;13.30;9.55;;;;;;;14.94;100.00;100159.41;1663131;83;21022;-79
2022/10/01 03:52:22;;;;;;;13.13;9.58;;;;;;;14.96;100.00;100158.67;1660404;84;21217;-76
2022/10/01 03:54:48;;;;;;;8.90;8.13;;;;;;;15.01;100.00;100165.23;1688620;83;21065;-79
2022/10/01 03:57:15;;;;;;;10.58;8.73;;;;;;;15.02;100.00;100170.91;1673354;83;21053;-77
2022/10/01 03:59:41;;;;;;;;;;;;;;;15.02;100.00;100178.43;1653457;86;21109;-78
2022/10/01 04:02:07;;;;;;;9.83;8.90;;;;;;;15.03;100.00;100177.91;1673039;83;20188;-78
2022/10/01 04:04:34;;;;;;;8.68;7.80;;;;;;;14.97;100.00;100180.95;1700397;83;21542;-78
2022/10/01 04:07:00;;;;;;;10.95;8.50;;;;;;;14.98;100.00;100170.53;1665886;85;21045;-76
2022/10/01 04:09:28;;;;;;;8.25;7.40;;;;;;;15.02;100.00;100165.55;1663051;85;21049;-77
2022/10/01 04:11:54;;;;;;;;;;;;;;;15.06;100.00;100168.08;1679582;85;21028;-77
2022/10/01 04:14:21;;;;;;;8.35;6.83;;;;;;;15.09;100.00;100177.04;1663132;85;20137;-77
2022/10/01 04:16:51;;;;;;;8.25;7.47;;;;;;;15.10;100.00;100174.64;1668074;85;21042;-79
2022/10/01 04:19:17;;;;;;;9.90;8.45;;;;;;;15.15;100.00;100176.14;1677672;85;21109;-78
2022/10/01 04:21:45;;;;;;;8.60;7.80;;;;;;;15.16;100.00;100173.73;1687952;83;21455;-78
2022/10/01 04:24:13;;;;;;;8.80;7.17;;;;;;;15.22;100.00;100178.24;1697238;83;21057;-79
2022/10/01 04:26:39;;;;;;;;;;;;;;;15.40;100.00;100179.28;1684806;84;21074;-78
2022/10/01 04:29:05;;;;;;;7.25;6.53;;;;;;;15.71;100.00;100177.77;1679236;83;20380;-78
2022/10/01 04:31:33;;;;;;;6.60;6.10;;;;;;;15.96;100.00;100175.52;1653571;85;21033;-78
2022/10/01 04:34:00;;;;;;;7.00;6.08;;;;;;;16.18;100.00;100177.19;1615049;85;21101;-80
2022/10/01 04:36:27;;;;;;;10.20;7.12;;;;;;;16.33;100.00;100186.14;1620500;86;21044;-79
2022/10/01 04:38:55;;;;;;;6.58;5.97;;;;;;;16.33;100.00;100186.14;1615098;87;21614;-79
2022/10/01 04:41:21;;;;;;;8.78;7.12;;;;;;;16.37;100.00;100192.73;1655076;85;20978;-79
2022/10/01 04:43:48;;;;;;;7.75;7.00;;;;;;;16.38;100.00;100188.97;1679233;84;21053;-78
2022/10/01 04:46:15;;;;;;;7.50;6.87;;;;;;;16.39;100.00;100198.70;1658781;82;21006;-78
2022/10/01 04:48:41;;;;;;;6.22;5.80;;;;;;;16.42;100.00;100188.80;1654524;83;21054;-78
2022/10/01 04:51:09;;;;;;;9.68;6.80;;;;;;;16.46;100.00;100183.78;1656886;85;21588;-77
2022/10/01 04:53:37;;;;;;;8.20;7.30;;;;;;;16.55;100.00;100193.97;1655277;84;21551;-78
2022/10/01 04:56:05;;;;;;;8.10;6.85;;;;;;;16.64;99.64;100192.31;1653787;85;21053;-79
2022/10/01 04:58:32;;;;;;;6.92;6.22;;;;;;;16.68;98.87;100195.63;1652663;85;22090;-79
2022/10/01 05:00:58;;;;;;;7.55;5.95;;;;;;;16.67;98.39;100189.14;1654579;85;21128;-80
2022/10/01 05:03:25;;;;;;;5.72;5.25;;;;;;;16.64;98.19;100204.42;1659129;86;21157;-81
2022/10/01 05:05:51;;;;;;;5.45;4.97;;;;;;;16.61;98.43;100199.48;1651108;86;21534;-78
2022/10/01 05:08:18;;;;;;;6.28;5.53;;;;;;;16.60;98.60;100205.94;1672574;85;21539;-79
2022/10/01 05:10:44;;;;;;;5.62;5.20;;;;;;;16.69;99.10;100204.55;1666917;85;21057;-79
2022/10/01 05:13:10;;;;;;;;;;;;;;;16.81;99.15;100206.71;1669311;85;21037;-78
2022/10/01 05:15:36;;;;;;;6.25;5.72;;;;;;;16.92;97.86;100210.51;1651605;85;20140;-79
2022/10/01 05:18:03;;;;;;;5.80;5.28;;;;;;;16.90;97.34;100212.61;1663398;85;21573;-82
2022/10/01 05:20:29;;;;;;;;;;;;;;;17.28;98.69;100208.62;1660365;85;21093;-82
2022/10/01 05:22:55;;;;;;;5.97;5.45;;;;;;;18.20;97.82;100209.70;1615920;87;20116;-80
2022/10/01 05:25:24;;;;;;;5.20;4.70;;;;;;;19.31;91.50;100198.26;1639285;86;21099;-80
2022/10/01 05:27:50;;;;;;;4.58;4.28;;;;;;;20.56;84.29;100196.67;1607932;87;21010;-80
2022/10/01 05:30:21;;;;;;;;;;;;;;;21.69;78.49;100194.16;1640259;86;21057;-80
2022/10/01 05:32:55;;;;;;;3.72;3.42;;;;;;;22.54;71.66;100190.27;1628617;86;20128;-79
2022/10/01 05:35:21;;;;;;;3.98;3.67;;;;;;;23.08;67.40;100198.41;1644943;86;21126;-78
2022/10/01 05:37:55;;;;;;;4.55;3.50;;;;;;;23.71;64.23;100200.64;1653789;84;21012;-81
2022/10/01 05:40:24;;;;;;;2.85;2.60;;;;;;;24.25;60.59;100196.29;1664564;85;21483;-83
2022/10/01 05:42:50;;;;;;;2.10;2.00;;;;;;;24.66;56.87;100194.09;1633085;86;21102;-79
2022/10/01 05:45:18;;;;;;;3.47;2.67;;;;;;;24.96;55.60;100198.99;1663755;84;21115;-78
2022/10/01 05:47:44;;;;;;;3.50;2.50;;;;;;;25.31;53.42;100200.29;1608428;87;21055;-78
2022/10/01 05:50:11;;;;;;;3.00;2.45;;;;;;;25.56;52.70;100193.70;1657395;85;21086;-79
2022/10/01 05:52:37;;;;;;;2.33;2.22;;;;;;;25.80;51.98;100189.02;1638025;85;21021;-80
2022/10/01 05:55:04;;;;;;;1.87;1.77;;;;;;;26.11;51.24;100190.00;1615518;87;21011;-77
2022/10/01 05:57:31;;;;;;;2.15;1.98;;;;;;;26.38;49.74;100181.10;1627110;86;21137;-77
2022/10/01 05:59:57;;;;;;;2.60;2.40;;;;;;;26.64;48.62;100184.02;1642162;86;21127;-76
2022/10/01 06:02:23;;;;;;;2.25;1.95;;;;;;;26.73;47.62;100183.55;1671623;84;21031;-76
2022/10/01 06:04:49;;;;;;;2.98;2.77;;;;;;;26.32;48.32;100172.73;1664350;84;21081;-81
2022/10/01 06:07:15;;;;;;;3.65;2.33;;;;;;;25.63;49.06;100179.16;1639980;86;21407;-84
2022/10/01 06:09:41;;;;;;;2.05;1.80;;;;;;;24.86;51.02;100172.65;1631406;86;21521;-79
2022/10/01 06:12:08;;;;;;;2.27;2.05;;;;;;;24.48;52.94;100185.20;1650418;85;21071;-76
2022/10/01 06:14:35;;;;;;;1.98;1.72;;;;;;;24.52;53.63;100184.93;1689838;83;21074;-76
2022/10/01 06:17:01;;;;;;;3.87;2.70;;;;;;;24.90;52.69;100184.33;1678476;82;21025;-76
2022/10/01 06:19:28;;;;;;;2.05;1.80;;;;;;;25.23;51.79;100185.38;1666701;84;21530;-82
2022/10/01 06:21:54;;;;;;;2.15;2.00;;;;;;;25.17;51.38;100179.70;1670114;84;21046;-79
2022/10/01 06:24:20;;;;;;;2.20;2.10;;;;;;;24.73;52.25;100191.02;1667410;84;21021;-75
2022/10/01 06:26:47;;;;;;;3.83;3.52;;;;;;;24.17;53.78;100180.00;1625737;87;20983;-76
2022/10/01 06:29:13;;;;;;;3.17;2.72;;;;;;;23.56;55.66;100191.98;1649116;84;20985;-80
2022/10/01 06:31:39;;;;;;;3.30;2.15;;;;;;;22.98;57.96;100188.88;1664632;85;21088;-77
2022/10/01 06:34:06;;;;;;;2.77;2.33;;;;;;;22.35;59.26;100192.16;1675495;85;21030;-81
2022/10/01 06:36:33;;;;;;;2.10;1.98;;;;;;;21.69;61.40;100198.77;1676545;85;21030;-77
2022/10/01 06:38:59;;;;;;;2.25;2.05;;;;;;;21.16;63.37;100200.92;1688087;83;21614;-76
2022/10/01 06:41:25;;;;;;;2.55;2.25;;;;;;;20.79;65.36;100207.19;1687481;82;21089;-79
2022/10/01 06:43:51;;;;;;;2.47;2.30;;;;;;;20.54;66.71;100212.36;1686967;83;21098;-74
2022/10/01 06:46:17;;;;;;;2.00;1.90;;;;;;;20.33;67.96;100205.41;1660356;83;21499;-79
2022/10/01 06:48:43;;;;;;;1.62;1.52;;;;;;;20.19;68.61;100202.81;1672738;84;21553;-77
2022/10/01 06:51:10;;;;;;;2.25;2.12;;;;;;;20.02;69.42;100206.45;1672787;85;21130;-77
2022/10/01 06:53:37;;;;;;;1.92;1.82;;;;;;;19.93;70.22;100201.73;1642123;86;21147;-80
2022/10/01 06:56:06;;;;;;;2.22;2.08;;;;;;;19.89;70.64;100210.91;1651824;85;21017;-79
2022/10/01 06:58:32;;;;;;;2.35;1.75;;;;;;;19.88;70.93;100204.39;1647401;86;21072;-76
2022/10/01 07:01:01;;;;;;;2.12;1.45;;;;;;;19.88;71.48;100198.98;1672448;84;21610;-78
2022/10/01 07:03:30;;;;;;;2.02;1.67;;;;;;;19.88;71.21;100199.80;1693725;84;21126;-77
2022/10/01 07:06:06;;;;;;;2.08;1.98;;;;;;;19.86;70.39;100204.64;1664103;84;21185;-77
2022/10/01 07:08:32;;;;;;;3.30;1.50;;;;;;;19.84;70.73;100210.30;1649365;84;21086;-76
2022/10/01 07:11:02;;;;;;;1.70;1.60;;;;;;;19.84;69.74;100210.84;1630852;87;21143;-75
2022/10/01 07:13:30;;;;;;;1.98;1.62;;;;;;;19.80;69.29;100204.31;1657837;86;21027;-76
2022/10/01 07:15:56;;;;;;;2.02;1.35;;;;;;;19.77;69.35;100200.75;1629607;85;21013;-76
2022/10/01 07:18:23;;;;;;;1.27;1.17;;;;;;;19.77;69.50;100196.69;1620618;86;21007;-75
2022/10/01 07:20:50;;;;;;;2.58;1.40;;;;;;;19.82;69.12;100201.62;1652603;84;21035;-77
2022/10/01 07:23:16;;;;;;;3.65;1.55;;;;;;;19.90;68.37;100204.96;1680214;84;21578;-78
2022/10/01 07:25:45;;;;;;;2.27;0.82;;;;;;;19.92;68.60;100202.27;1675292;84;21049;-75
2022/10/01 07:28:16;;;;;;;1.52;1.20;;;;;;;19.96;67.82;100196.63;1670031;84;21109;-79
2022/10/01 07:30:59;;;;;;;1.98;1.00;;;;;;;20.01;68.18;100199.94;1653299;84;21052;-77
2022/10/01 07:33:27;;;;;;;0.65;0.65;;;;;;;20.12;67.21;100200.33;1669011;83;21075;-77
2022/10/01 07:36:03;;;;;;;1.77;0.75;;;;;;;20.20;67.03;100198.51;1627614;86;21929;-78
2022/10/01 07:38:34;;;;;;;0.80;0.80;;;;;;;20.27;66.65;100194.25;1606229;87;21552;-77
2022/10/01 07:41:02;;;;;;;1.32;0.55;;;;;;;20.33;66.43;100203.24;1619476;86;21056;-77
2022/10/01 07:43:31;;;;;;;3.22;0.80;;;;;;;20.33;66.06;100200.53;1644933;85;21119;-76
2022/10/01 07:45:58;;;;;;;0.80;0.68;;;;;;;20.34;66.03;100196.73;1665787;84;21112;-78
2022/10/01 07:48:26;;;;;;;0.82;0.57;;;;;;;20.35;65.74;100188.36;1642876;85;21226;-79
2022/10/01 07:50:52;;;;;;;3.33;0.57;;;;;;;20.36;65.89;100201.36;1634955;85;21020;-78
2022/10/01 07:53:18;;;;;;;0.70;0.40;;;;;;;20.39;65.44;100196.25;1654899;85;21175;-75
2022/10/01 07:55:45;;;;;;;1.77;0.30;;;;;;;20.49;64.83;100200.13;1661302;85;21055;-76
2022/10/01 07:58:12;;;;;;;1.35;0.30;;;;;;;20.55;64.94;100195.86;1642280;85;21015;-77
2022/10/01 08:00:39;;;;;;;0.60;0.60;;;;;;;20.61;65.01;100191.34;1629289;87;21008;-78
2022/10/01 08:03:05;;;;;;;;;;;;;;;20.71;63.81;100183.28;1643283;86;21550;-79
2022/10/01 08:05:33;;;;;;;;;;;;;;;20.68;63.85;100189.23;1636700;87;20452;-76
2022/10/01 08:08:04;;;;;;;;;;;;;;;20.59;63.78;100188.84;1653530;85;20140;-79
2022/10/01 08:10:33;;;;;;;;;;;;;;;20.52;64.45;100180.66;1646585;86;20266;-80
2022/10/01 08:13:00;;;;;;;;;;;;;;;20.46;64.17;100181.70;1623653;86;20144;-76
2022/10/01 08:15:27;;;;;;;;;;;;;;;20.40;64.56;100196.55;1627904;86;20120;-75
2022/10/01 08:17:54;;;;;;;;;;;;;;;20.34;65.27;100189.45;1667526;84;20111;-77
2022/10/01 08:20:20;;;;;;;;;;;;;;;20.34;65.48;100189.45;1652185;85;20117;-76
2022/10/01 08:22:46;;;;;;;;;;;;;;;20.36;64.88;100190.02;1679209;85;20139;-80
2022/10/01 08:25:12;;;;;;;;;;;;;;;20.38;65.02;100189.22;1682413;83;20109;-76
2022/10/01 08:27:40;;;;;;;;;;;;;;;20.46;65.35;100168.17;1679716;85;20117;-77
2022/10/01 08:30:07;;;;;;;;;;;;;;;20.58;64.63;100168.80;1695006;83;20127;-76
2022/10/01 08:32:33;;;;;;;;;;;;;;;20.61;64.15;100166.97;1688470;83;20095;-77
2022/10/01 08:35:00;;;;;;;;;;;;;;;20.59;64.50;100165.02;1692356;84;20135;-74
2022/10/01 08:37:28;;;;;;;;;;;;;;;20.58;64.49;100163.38;1674164;84;20133;-76
2022/10/01 08:39:54;;;;;;;;;;;;;;;20.59;64.52;100163.67;1668398;85;20114;-78
2022/10/01 08:42:24;;;;;;;;;;;;;;;20.63;64.01;100166.71;1659749;85;20144;-80
2022/10/01 08:44:51;;;;;;;;;;;;;;;20.65;64.14;100166.72;1677531;82;20160;-81
2022/10/01 08:47:33;;;;;;;;;;;;;;;20.69;63.94;100171.08;1667806;84;20147;-79
2022/10/01 08:50:03;;;;;;;;;;;;;;;20.73;63.73;100175.70;1679952;85;20479;-80
2022/10/01 08:52:36;;;;;;;;;;;;;;;20.85;62.68;100167.93;1683169;85;20102;-79
2022/10/01 08:55:10;;;;;;;;;;;;;;;20.92;62.50;100169.88;1664232;85;20183;-82
2022/10/01 08:57:45;;;;;;;;;;;;;;;21.03;61.55;100182.96;1699607;83;20138;-82
2022/10/01 09:00:14;;;;;;;;;;;;;;;21.11;61.00;100180.55;1694218;83;20185;-78
2022/10/01 09:02:42;;;;;;;;;;;;;;;21.17;60.03;100178.69;1705396;84;20286;-82
2022/10/01 09:05:25;;;;;;;;;;;;;;;21.16;59.43;100172.46;1695605;83;20097;-79
2022/10/01 09:08:14;;;;;;;;;;;;;;;21.09;57.55;100173.77;1704839;84;20129;-82
2022/10/01 09:10:47;;;;;;;;;;;;;;;20.90;58.13;100170.69;1696357;84;20432;-81
2022/10/01 09:13:34;;;;;;;;;;;;;;;20.70;58.26;100171.34;1705254;83;20098;-80
2022/10/01 09:16:13;;;;;;;;;;;;;;;20.58;59.18;100177.73;1675823;83;20165;-82
2022/10/01 09:18:45;;;;;;;;;;;;;;;20.51;59.05;100179.86;1713668;84;20395;-81
2022/10/01 09:21:19;;;;;;;;;;;;;;;20.47;59.33;100173.84;1700771;83;20191;-80
2022/10/01 09:23:49;;;;;;;;;;;;;;;20.47;59.75;100177.91;1710047;84;20123;-82
2022/10/01 09:26:15;;;;;;;;;;;;;;;20.49;60.33;100178.47;1695013;84;20158;-83
2022/10/01 09:28:43;;;;;;;;;;;;;;;20.49;60.00;100186.58;1705088;83;20402;-85
2022/10/01 09:31:20;;;;;;;;;;;;;;;20.52;60.54;100184.73;1705473;83;20113;-83
2022/10/01 09:33:59;;;;;;;;;;;;;;;20.59;60.30;100182.08;1706431;84;20411;-83
2022/10/01 09:36:33;;;;;;;;;;;;;;;20.70;59.99;100190.30;1692718;83;20106;-89
2022/10/01 09:39:02;;;;;;;;;;;;;;;20.76;59.37;100185.23;1654107;86;20397;-80
2022/10/01 09:41:30;;;;;;;;;;;;;;;20.78;59.77;100189.30;1671581;84;20167;-86
2022/10/01 09:43:56;;;;;;;;;;;;;;;20.79;58.55;100188.23;1700747;83;20115;-82
2022/10/01 09:46:25;;;;;;;;;;;;;;;20.73;58.65;100187.89;1708698;83;20182;-80
2022/10/01 09:49:08;;;;;;;;;;;;;;;20.67;59.28;100188.94;1709001;83;20457;-86
2022/10/01 09:51:38;;;;;;;;;;;;;;;20.72;59.43;100186.80;1704167;84;20111;-80
2022/10/01 09:54:26;;;;;;;;;;;;;;;20.82;59.25;100183.37;1691713;82;20401;-82
2022/10/01 09:57:02;;;;;;;;;;;;;;;20.92;58.72;100185.59;1710973;82;20115;-80
2022/10/01 09:59:32;;;;;;;;;;;;;;;21.02;58.36;100181.31;1690730;83;20117;-81
2022/10/01 10:02:04;;;;;;;;;;;;;;;21.06;58.18;100185.97;1701702;84;20170;-84
2022/10/01 10:04:31;;;;;;;;;;;;;;;21.10;58.61;100180.30;1690911;84;20159;-91
2022/10/01 10:07:00;;;;;;;;;;;;;;;21.18;57.97;100173.02;1704112;82;20194;-84
2022/10/01 10:09:32;;;;;;;;;;;;;;;21.20;56.69;100173.56;1686359;84;20137;-80
2022/10/01 10:11:58;;;;;;;;;;;;;;;21.19;57.14;100176.02;1690253;84;20162;-86
2022/10/01 10:14:30;;;;;;;;;;;;;;;21.21;56.45;100183.89;1704103;83;20131;-79
2022/10/01 10:16:57;;;;;;;;;;;;;;;21.12;56.25;100186.27;1713724;83;20446;-78
2022/10/01 10:19:28;;;;;;;;;;;;;;;20.99;56.70;100184.02;1700353;84;20111;-82
2022/10/01 10:21:59;;;;;;;;;;;;;;;20.92;56.84;100188.84;1705912;83;20103;-79
2022/10/01 10:24:27;;;;;;;;;;;;;;;20.89;57.35;100181.23;1703726;83;20162;-82
2022/10/01 10:26:57;;;;;;;;;;;;;;;20.92;58.01;100176.66;1651052;85;20616;-81
2022/10/01 10:29:31;;;;;;;;;;;;;;;20.92;57.07;100178.01;1667729;85;20139;-82
2022/10/01 10:32:00;;;;;;;;;;;;;;;20.93;57.41;100176.95;1665659;85;20136;-81
2022/10/01 10:34:30;;;;;;;;;;;;;;;20.98;57.63;100167.47;1653523;86;20242;-79
2022/10/01 10:37:04;;;;;;;;;;;;;;;21.07;57.38;100179.45;1663446;85;20237;-81
2022/10/01 10:39:37;;;;;;;;;;;;;;;21.15;57.50;100171.36;1667727;85;20127;-92
2022/10/01 10:42:04;;;;;;;;;;;;;;;21.23;56.90;100164.62;1658827;86;20176;-80
2022/10/01 10:44:37;;;;;;;;;;;;;;;21.30;56.68;100157.08;1646192;85;20103;-82
2022/10/01 10:47:12;;;;;;;;;;;;;;;21.38;56.46;100158.75;1653140;86;20126;-81
2022/10/01 10:49:56;;;;;;;;;;;;;;;21.38;55.95;100157.95;1652974;85;20174;-80
2022/10/01 10:52:35;;;;;;;;;;;;;;;21.36;56.08;100156.02;1654420;85;20131;-80
2022/10/01 10:55:22;;;;;;;;;;;;;;;21.37;56.18;100153.59;1667143;86;20194;-79
2022/10/01 10:57:49;;;;;;;;;;;;;;;21.41;56.14;100153.33;1656651;85;20526;-81
2022/10/01 11:00:19;;;;;;;;;;;;;;;21.48;56.00;100147.16;1658612;85;20143;-79
2022/10/01 11:02:52;;;;;;;;;;;;;;;21.51;55.62;100140.38;1649269;85;20295;-79
2022/10/01 11:05:21;;;;;;;;;;;;;;;21.52;55.83;100144.19;1669257;85;20497;-78
2022/10/01 11:07:51;;;;;;;;;;;;;;;21.52;55.48;100136.60;1641848;85;20113;-80
2022/10/01 11:10:55;;;;;;;;;;;;;;;21.49;55.46;100135.25;1657990;86;20178;-81
2022/10/01 11:13:25;;;;;;;;;;;;;;;21.45;55.70;100136.84;1654344;86;20103;-81
2022/10/01 11:15:58;;;;;;;;;;;;;;;21.38;55.33;100145.75;1657228;85;20502;-79
2022/10/01 11:18:54;;;;;;;;;;;;;;;21.29;55.21;100148.14;1650654;85;20232;-86
2022/10/01 11:21:29;;;;;;;;;;;;;;;21.22;55.84;100139.97;1627827;86;20147;-79
2022/10/01 11:23:59;;;;;;;;;;;;;;;21.19;56.80;100138.59;1648519;86;20229;-80
2022/10/01 11:26:38;;;;;;;;;;;;;;;21.20;57.16;100134.27;1660145;85;20092;-82
2022/10/01 11:29:08;;;;;;;;;;;;;;;21.18;57.28;100132.36;1646495;85;20164;-79
2022/10/01 11:31:38;;;;;;;;;;;;;;;21.19;57.42;100132.65;1657794;86;20154;-81
2022/10/01 11:34:26;;;;;;;;;;;;;;;21.21;57.32;100137.81;1641386;86;20205;-78
2022/10/01 11:37:00;;;;;;;;;;;;;;;21.19;57.36;100135.87;1629555;85;20163;-81
2022/10/01 11:39:27;;;;;;;;;;;;;;;21.13;56.92;100128.81;1641730;86;20422;-78
2022/10/01 11:42:11;;;;;;;;;;;;;;;21.05;57.11;100126.61;1644410;86;20141;-78
2022/10/01 11:45:00;;;;;;;;;;;;;;;20.97;57.63;100122.51;1627103;86;20156;-79
2022/10/01 11:47:43;;;;;;;;;;;;;;;20.91;58.24;100120.86;1651354;86;20099;-78
2022/10/01 11:50:17;;;;;;;;;;;;;;;20.83;58.53;100117.27;1644974;85;20406;-78
2022/10/01 11:52:53;;;;;;;;;;;;;;;20.76;59.05;100121.03;1661215;85;20139;-80
2022/10/01 11:58:49;;;;;;;;;;;;;;;20.63;59.40;100121.48;1663497;85;20459;-80
2022/10/01 12:01:19;;;;;;;;;;;;;;;20.55;60.00;100119.20;1655521;85;20197;-81
2022/10/01 12:03:52;;;;;;;;;;;;;;;20.53;60.41;100111.89;1648968;86;20144;-80
2022/10/01 12:06:52;;;;;;;;;;;;;;;20.53;60.83;100104.60;1645965;86;20223;-82
2022/10/01 12:09:25;;;;;;;;;;;;;;;20.54;60.81;100101.34;1646122;86;20102;-82
2022/10/01 12:11:57;;;;;;;;;;;;;;;20.53;60.77;100102.41;1648931;85;20153;-80